createdAt,value
2023-03-11T00:00:25.987Z,78.23
2023-03-11T00:02:57.019Z,78.43
2023-03-11T00:05:27.652Z,79.53
2023-03-11T00:07:56.244Z,80.83
2023-03-11T00:10:30.341Z,81.07
2023-03-11T00:12:58.605Z,81.40
2023-03-11T00:15:27.090Z,80.27
2023-03-11T00:17:55.600Z,79.50
2023-03-11T00:20:27.509Z,78.23
2023-03-11T00:22:56.265Z,78.10
2023-03-11T00:25:28.781Z,78.77
2023-03-11T00:27:57.103Z,77.77
2023-03-11T00:30:25.838Z,78.27
2023-03-11T00:32:55.717Z,79.10
2023-03-11T00:35:26.968Z,78.90
2023-03-11T00:37:56.821Z,80.47
2023-03-11T00:40:28.662Z,79.73
2023-03-11T00:42:57.136Z,80.30
2023-03-11T00:45:25.266Z,81.37
2023-03-11T00:47:53.783Z,81.57
2023-03-11T00:50:24.288Z,80.37
2023-03-11T00:52:53.183Z,80.53
2023-03-11T00:55:23.404Z,81.50
2023-03-11T00:57:54.825Z,80.23
2023-03-11T01:00:24.525Z,80.60
2023-03-11T01:02:54.480Z,80.00
2023-03-11T01:05:25.109Z,81.07
2023-03-11T01:07:53.329Z,82.00
2023-03-11T01:10:21.767Z,81.47
2023-03-11T01:12:49.889Z,80.00
2023-03-11T01:15:28.653Z,79.77
2023-03-11T01:17:56.978Z,79.80
2023-03-11T01:20:25.515Z,79.87
2023-03-11T01:22:53.612Z,78.57
2023-03-11T01:25:23.195Z,77.30
2023-03-11T01:27:51.292Z,77.80
2023-03-11T01:30:22.504Z,76.10
2023-03-11T01:32:51.336Z,75.30
2023-03-11T01:35:21.487Z,74.00
2023-03-11T01:37:49.644Z,75.10
2023-03-11T01:40:22.495Z,76.30
2023-03-11T01:42:50.561Z,74.97
2023-03-11T01:45:38.149Z,74.70
2023-03-11T01:48:06.405Z,72.07
2023-03-11T01:50:38.255Z,72.60
2023-03-11T01:53:07.604Z,73.00
2023-03-11T01:55:36.084Z,69.47
2023-03-11T01:58:08.851Z,68.27
2023-03-11T02:00:39.012Z,67.67
2023-03-11T02:03:12.177Z,64.30
2023-03-11T02:05:41.959Z,63.20
2023-03-11T02:08:10.618Z,63.00
2023-03-11T02:10:40.004Z,64.33
2023-03-11T02:13:09.203Z,64.57
2023-03-11T02:15:40.027Z,63.20
2023-03-11T02:18:09.419Z,63.03
2023-03-11T02:20:46.402Z,62.13
2023-03-11T02:23:15.422Z,64.40
2023-03-11T02:25:51.966Z,64.10
2023-03-11T02:28:22.593Z,62.37
2023-03-11T02:30:51.872Z,59.07
2023-03-11T02:33:20.782Z,55.07
2023-03-11T02:35:49.003Z,53.40
2023-03-11T02:38:17.093Z,51.53
2023-03-11T02:40:52.844Z,51.73
2023-03-11T02:43:25.860Z,54.30
2023-03-11T02:45:54.679Z,55.37
2023-03-11T02:48:24.011Z,54.30
2023-03-11T02:50:52.962Z,55.43
2023-03-11T02:53:21.149Z,54.80
2023-03-11T02:55:49.297Z,55.13
2023-03-11T02:58:17.473Z,55.87
2023-03-11T03:00:47.028Z,55.40
2023-03-11T03:03:15.854Z,55.50
2023-03-11T03:05:44.005Z,55.43
2023-03-11T03:08:12.043Z,54.80
2023-03-11T03:10:40.226Z,55.67
2023-03-11T03:13:08.940Z,57.43
2023-03-11T03:15:36.976Z,56.77
2023-03-11T03:18:06.773Z,56.83
2023-03-11T03:20:34.893Z,57.23
2023-03-11T03:23:02.975Z,56.00
2023-03-11T03:25:31.145Z,55.73
2023-03-11T03:27:59.169Z,55.30
2023-03-11T03:30:28.428Z,54.23
2023-03-11T03:32:56.666Z,54.80
2023-03-11T03:35:26.075Z,54.80
2023-03-11T03:37:56.980Z,55.13
2023-03-11T03:40:25.062Z,55.40
2023-03-11T03:42:53.140Z,54.60
2023-03-11T03:45:21.197Z,54.67
2023-03-11T03:47:49.295Z,54.37
2023-03-11T03:50:17.381Z,53.67
2023-03-11T03:52:46.818Z,53.50
2023-03-11T03:55:15.203Z,54.30
2023-03-11T03:57:43.523Z,53.37
2023-03-11T04:00:12.801Z,52.80
2023-03-11T04:02:40.921Z,52.20
2023-03-11T04:05:10.111Z,52.17
2023-03-11T04:07:38.274Z,50.60
2023-03-11T04:10:08.804Z,49.50
2023-03-11T04:12:37.019Z,51.20
2023-03-11T04:15:05.955Z,49.87
2023-03-11T04:17:34.041Z,50.60
2023-03-11T04:20:02.132Z,48.60
2023-03-11T04:22:30.208Z,49.17
2023-03-11T04:24:58.227Z,48.83
2023-03-11T04:27:27.732Z,48.40
2023-03-11T04:29:55.828Z,46.97
2023-03-11T04:32:24.946Z,45.87
2023-03-11T04:34:53.108Z,46.33
2023-03-11T04:37:21.185Z,46.80
2023-03-11T04:39:53.359Z,47.73
2023-03-11T04:42:21.427Z,46.20
2023-03-11T04:44:50.912Z,44.33
2023-03-11T04:47:18.996Z,45.23
2023-03-11T04:49:47.060Z,45.30
2023-03-11T04:52:15.201Z,45.27
2023-03-11T04:54:43.255Z,43.27
2023-03-11T04:57:11.338Z,44.67
2023-03-11T04:59:39.662Z,42.57
2023-03-11T05:02:11.714Z,43.47
2023-03-11T05:04:40.892Z,42.97
2023-03-11T05:07:08.985Z,42.47
2023-03-11T05:09:37.125Z,41.83
2023-03-11T05:12:05.873Z,41.10
2023-03-11T05:14:33.994Z,41.57
2023-03-11T05:17:02.069Z,40.50
2023-03-11T05:19:35.602Z,39.17
2023-03-11T05:22:04.248Z,38.93
2023-03-11T05:24:32.892Z,38.40
2023-03-11T05:27:01.983Z,38.70
2023-03-11T05:29:30.113Z,38.13
2023-03-11T05:31:58.303Z,37.73
2023-03-11T05:34:26.481Z,37.03
2023-03-11T05:36:55.975Z,35.83
2023-03-11T05:39:24.111Z,36.20
2023-03-11T05:41:52.106Z,35.43
2023-03-11T05:44:20.211Z,36.50
2023-03-11T05:46:48.381Z,37.93
2023-03-11T05:49:16.450Z,35.30
2023-03-11T05:51:44.573Z,36.37
2023-03-11T05:54:15.213Z,35.73
2023-03-11T05:56:44.794Z,35.13
2023-03-11T05:59:16.371Z,34.57
2023-03-11T06:01:45.207Z,33.17
2023-03-11T06:04:13.729Z,32.53
2023-03-11T06:06:42.523Z,32.50
2023-03-11T06:09:14.615Z,32.03
2023-03-11T06:11:43.516Z,32.50
2023-03-11T06:14:12.999Z,32.30
2023-03-11T06:16:41.720Z,32.47
2023-03-11T06:19:10.531Z,32.17
2023-03-11T06:21:38.584Z,33.60
2023-03-11T06:24:07.278Z,33.23
2023-03-11T06:26:36.800Z,32.87
2023-03-11T06:29:04.899Z,33.63
2023-03-11T06:31:33.231Z,32.50
2023-03-11T06:34:02.382Z,33.37
2023-03-11T06:36:30.740Z,32.73
2023-03-11T06:38:58.793Z,33.43
2023-03-11T06:41:26.918Z,33.23
2023-03-11T06:43:59.687Z,32.97
2023-03-11T06:46:27.826Z,32.57
2023-03-11T06:48:56.059Z,33.70
2023-03-11T06:51:24.149Z,35.53
2023-03-11T06:53:52.879Z,33.70
2023-03-11T06:56:21.978Z,34.57
2023-03-11T06:58:50.393Z,34.27
2023-03-11T07:01:21.511Z,34.40
2023-03-11T07:03:50.953Z,34.63
2023-03-11T07:06:20.825Z,35.50
2023-03-11T07:08:50.412Z,37.00
2023-03-11T07:11:20.797Z,39.67
2023-03-11T07:13:49.144Z,39.03
2023-03-11T07:16:20.993Z,40.90
2023-03-11T07:18:50.610Z,40.53
2023-03-11T07:21:21.275Z,42.20
2023-03-11T07:23:52.803Z,44.07
2023-03-11T07:26:21.047Z,43.87
2023-03-11T07:28:49.397Z,45.60
2023-03-11T07:31:19.900Z,47.73
2023-03-11T07:33:49.461Z,48.50
2023-03-11T07:36:20.069Z,49.90
2023-03-11T07:38:48.619Z,51.50
2023-03-11T07:41:17.008Z,52.27
2023-03-11T07:43:45.936Z,52.47
2023-03-11T07:46:18.419Z,53.90
2023-03-11T07:48:47.113Z,56.40
2023-03-11T07:51:18.092Z,57.33
2023-03-11T07:53:46.179Z,58.53
2023-03-11T07:56:16.763Z,59.67
2023-03-11T07:58:45.936Z,60.57
2023-03-11T08:01:16.614Z,59.93
2023-03-11T08:03:45.906Z,59.37
2023-03-11T08:06:16.443Z,62.00
2023-03-11T08:08:44.991Z,63.30
2023-03-11T08:11:14.150Z,64.60
2023-03-11T08:13:44.707Z,64.50
2023-03-11T08:16:15.691Z,67.27
2023-03-11T08:18:44.157Z,65.33
2023-03-11T08:21:15.814Z,67.30
2023-03-11T08:23:47.122Z,60.63
2023-03-11T08:26:17.844Z,58.57
2023-03-11T08:28:46.075Z,54.50
2023-03-11T08:31:15.127Z,52.47
2023-03-11T08:33:44.181Z,53.87
2023-03-11T08:36:12.702Z,52.93
2023-03-11T08:38:40.870Z,47.20
2023-03-11T08:41:10.352Z,45.63
2023-03-11T08:43:38.899Z,47.20
2023-03-11T08:46:07.864Z,45.33
2023-03-11T08:48:38.304Z,43.40
2023-03-11T08:51:11.441Z,41.57
2023-03-11T08:53:39.641Z,41.70
2023-03-11T08:56:08.813Z,42.57
2023-03-11T08:58:38.395Z,41.40
2023-03-11T09:01:07.251Z,41.10
2023-03-11T09:03:36.288Z,40.67
2023-03-11T09:06:07.756Z,40.83
2023-03-11T09:08:36.268Z,42.50
2023-03-11T09:11:05.560Z,39.63
2023-03-11T09:13:33.928Z,39.57
2023-03-11T09:16:05.941Z,42.50
2023-03-11T09:18:34.284Z,44.10
2023-03-11T09:21:02.553Z,43.70
2023-03-11T09:23:31.852Z,44.67
2023-03-11T09:25:59.978Z,44.50
2023-03-11T09:28:28.014Z,43.57
2023-03-11T09:30:56.359Z,37.63
2023-03-11T09:33:25.989Z,34.53
2023-03-11T09:35:54.138Z,33.17
2023-03-11T09:38:22.337Z,31.07
2023-03-11T09:41:00.742Z,28.23
2023-03-11T09:43:52.850Z,29.67
2023-03-11T09:46:43.528Z,29.57
2023-03-11T09:49:22.200Z,28.17
2023-03-11T09:51:55.058Z,27.53
2023-03-11T09:54:23.277Z,26.70
2023-03-11T09:56:51.847Z,26.50
2023-03-11T09:59:27.736Z,24.90
2023-03-11T10:01:57.045Z,23.47
2023-03-11T10:04:31.519Z,24.57
2023-03-11T10:07:02.340Z,23.27
2023-03-11T10:09:39.358Z,23.07
2023-03-11T10:12:19.873Z,22.17
2023-03-11T10:15:05.095Z,22.70
2023-03-11T10:18:08.030Z,22.33
2023-03-11T10:20:47.496Z,21.77
2023-03-11T10:23:25.740Z,22.03
2023-03-11T10:26:01.207Z,21.73
2023-03-11T10:28:34.437Z,23.37
2023-03-11T10:31:08.245Z,22.33
2023-03-11T10:33:41.971Z,22.80
2023-03-11T10:36:17.326Z,22.43
2023-03-11T10:38:48.771Z,21.10
2023-03-11T10:41:21.157Z,21.60
2023-03-11T10:43:55.662Z,22.50
2023-03-11T10:46:27.142Z,22.47
2023-03-11T10:48:55.291Z,21.80
2023-03-11T10:51:26.960Z,21.80
2023-03-11T10:53:56.714Z,21.50
2023-03-11T10:56:32.879Z,21.70
2023-03-11T10:59:02.419Z,21.23
2023-03-11T11:01:31.245Z,20.77
2023-03-11T11:04:01.890Z,21.03
2023-03-11T11:06:33.399Z,20.57
2023-03-11T11:09:19.339Z,21.30
2023-03-11T11:12:03.376Z,22.17
2023-03-11T11:14:50.108Z,22.20
2023-03-11T11:17:20.882Z,22.27
2023-03-11T11:19:50.925Z,21.80
2023-03-11T11:22:22.561Z,21.70
2023-03-11T11:24:53.254Z,22.03
2023-03-11T11:27:23.308Z,21.43
2023-03-11T11:30:15.229Z,20.60
2023-03-11T11:32:43.592Z,20.60
2023-03-11T11:35:14.589Z,20.57
2023-03-11T11:37:47.309Z,20.77
2023-03-11T11:40:29.743Z,20.97
2023-03-11T11:43:01.487Z,20.70
2023-03-11T11:45:36.634Z,20.93
2023-03-11T11:48:13.417Z,20.87
2023-03-11T11:50:45.914Z,21.07
2023-03-11T11:53:25.783Z,20.43
2023-03-11T11:55:54.444Z,20.90
2023-03-11T11:58:22.972Z,20.40
2023-03-11T12:01:14.506Z,19.83
2023-03-11T12:04:23.453Z,19.40
2023-03-11T12:07:02.166Z,19.37
2023-03-11T12:09:37.832Z,19.67
2023-03-11T12:12:14.292Z,19.30
2023-03-11T12:14:47.574Z,19.40
2023-03-11T12:17:20.252Z,19.47
2023-03-11T12:19:53.164Z,19.60
2023-03-11T12:22:55.181Z,19.57
2023-03-11T12:25:33.945Z,19.93
2023-03-11T12:28:12.447Z,19.60
2023-03-11T12:30:45.037Z,20.30
2023-03-11T12:33:18.257Z,19.30
2023-03-11T12:35:53.739Z,19.83
2023-03-11T12:38:29.466Z,18.90
2023-03-11T12:41:05.796Z,19.50
2023-03-11T12:44:11.470Z,20.43
2023-03-11T12:47:04.355Z,20.37
2023-03-11T12:49:33.481Z,18.83
2023-03-11T12:52:17.280Z,19.10
2023-03-11T12:54:46.687Z,19.03
2023-03-11T12:57:35.720Z,19.80
2023-03-11T13:00:30.528Z,19.07
2023-03-11T13:03:33.237Z,20.43
2023-03-11T13:06:15.952Z,20.33
2023-03-11T13:08:48.100Z,18.70
2023-03-11T13:11:38.634Z,18.97
2023-03-11T13:14:27.452Z,19.03
2023-03-11T13:16:55.946Z,19.53
2023-03-11T13:19:52.000Z,18.90
2023-03-11T13:23:08.784Z,19.07
2023-03-11T13:25:41.832Z,18.47
2023-03-11T13:28:35.085Z,18.43
2023-03-11T13:31:17.969Z,18.40
2023-03-11T13:33:54.358Z,18.40
2023-03-11T13:36:49.818Z,18.83
2023-03-11T13:39:42.464Z,18.83
2023-03-11T13:42:25.111Z,19.40
2023-03-11T13:44:53.388Z,18.50
2023-03-11T13:47:23.151Z,18.40
2023-03-11T13:49:55.742Z,18.87
2023-03-11T13:52:28.277Z,18.50
2023-03-11T13:55:02.026Z,18.73
2023-03-11T13:57:31.868Z,18.50
2023-03-11T14:00:16.729Z,18.47
2023-03-11T14:02:51.014Z,18.40
2023-03-11T14:05:22.255Z,18.63
2023-03-11T14:07:50.462Z,20.30
2023-03-11T14:10:27.985Z,18.70
2023-03-11T14:13:17.251Z,19.07
2023-03-11T14:15:58.271Z,18.40
2023-03-11T14:18:36.871Z,18.50
2023-03-11T14:21:07.100Z,18.70
2023-03-11T14:23:40.532Z,18.87
2023-03-11T14:26:13.264Z,19.47
2023-03-11T14:28:45.229Z,18.53
2023-03-11T14:31:25.937Z,18.53
2023-03-11T14:34:04.367Z,18.67
2023-03-11T14:36:41.364Z,19.57
2023-03-11T14:39:27.800Z,19.10
2023-03-11T14:42:00.578Z,18.33
2023-03-11T14:44:30.479Z,18.50
2023-03-11T14:47:12.724Z,18.97
2023-03-11T14:49:43.473Z,18.63
2023-03-11T14:52:19.589Z,19.20
2023-03-11T14:54:49.527Z,18.57
2023-03-11T14:57:23.761Z,18.30
2023-03-11T14:59:54.208Z,18.37
2023-03-11T15:02:40.731Z,18.77
2023-03-11T15:05:17.686Z,18.93
2023-03-11T15:07:46.662Z,18.70
2023-03-11T15:10:15.475Z,19.00
2023-03-11T15:12:45.294Z,18.93
2023-03-11T15:15:23.978Z,18.57
2023-03-11T15:17:56.684Z,19.00
2023-03-11T15:20:29.383Z,18.90
2023-03-11T15:23:01.114Z,18.80
2023-03-11T15:25:31.992Z,19.30
2023-03-11T15:28:00.124Z,19.13
2023-03-11T15:30:30.404Z,18.73
2023-03-11T15:32:59.853Z,20.03
2023-03-11T15:35:30.801Z,18.83
2023-03-11T15:38:25.450Z,20.37
2023-03-11T15:40:55.658Z,18.60
2023-03-11T15:43:30.022Z,18.70
2023-03-11T15:45:59.952Z,18.80
2023-03-11T15:48:29.919Z,18.97
2023-03-11T15:51:00.791Z,19.13
2023-03-11T15:53:30.410Z,20.10
2023-03-11T15:56:07.446Z,19.77
2023-03-11T15:58:38.136Z,19.23
2023-03-11T16:01:06.605Z,19.60
2023-03-11T16:03:34.770Z,19.40
2023-03-11T16:06:05.438Z,19.13
2023-03-11T16:08:34.772Z,19.13
2023-03-11T16:11:02.829Z,18.97
2023-03-11T16:13:30.845Z,19.40
2023-03-11T16:15:59.031Z,20.30
2023-03-11T16:18:27.268Z,49.97
2023-03-11T16:20:56.304Z,21.07
2023-03-11T16:23:28.199Z,21.67
2023-03-11T16:25:59.657Z,20.00
2023-03-11T16:28:28.274Z,20.37
2023-03-11T16:30:56.799Z,19.60
2023-03-11T16:33:24.980Z,19.87
2023-03-11T16:35:53.068Z,18.97
2023-03-11T16:38:23.118Z,18.30
2023-03-11T16:40:58.321Z,19.40
2023-03-11T16:43:27.152Z,18.20
2023-03-11T16:45:55.576Z,17.57
2023-03-11T16:48:24.286Z,17.80
2023-03-11T16:50:52.381Z,17.80
2023-03-11T16:53:20.506Z,17.50
2023-03-11T16:55:49.147Z,18.43
2023-03-11T16:58:18.610Z,17.63
2023-03-11T17:00:47.389Z,18.40
2023-03-11T17:03:18.268Z,17.33
2023-03-11T17:05:49.643Z,17.33
2023-03-11T17:08:18.401Z,17.57
2023-03-11T17:10:47.313Z,18.63
2023-03-11T17:13:18.833Z,17.70
2023-03-11T17:15:58.276Z,17.27
2023-03-11T17:18:26.402Z,17.30
2023-03-11T17:20:54.776Z,16.93
2023-03-11T17:23:23.271Z,16.63
2023-03-11T17:25:51.344Z,16.50
2023-03-11T17:28:19.499Z,18.13
2023-03-11T17:30:48.944Z,16.70
2023-03-11T17:33:16.992Z,16.90
2023-03-11T17:35:45.129Z,16.50
2023-03-11T17:38:15.422Z,17.10
2023-03-11T17:40:44.483Z,16.70
2023-03-11T17:43:12.546Z,16.50
2023-03-11T17:45:40.838Z,16.77
2023-03-11T17:48:10.266Z,17.73
2023-03-11T17:50:39.589Z,16.90
2023-03-11T17:53:08.273Z,16.60
2023-03-11T17:55:41.224Z,18.17
2023-03-11T17:58:09.513Z,18.73
2023-03-11T18:00:37.747Z,18.90
2023-03-11T18:03:05.925Z,18.13
2023-03-11T18:05:37.652Z,18.13
2023-03-11T18:08:06.064Z,17.93
2023-03-11T18:10:34.240Z,19.37
2023-03-11T18:13:02.340Z,18.70
2023-03-11T18:15:30.404Z,19.35
2023-03-11T18:17:58.533Z,18.00
2023-03-11T18:20:26.719Z,18.87
2023-03-11T18:22:56.256Z,20.20
2023-03-11T18:25:24.312Z,18.00
2023-03-11T18:27:52.936Z,18.50
2023-03-11T18:30:21.211Z,18.00
2023-03-11T18:32:49.488Z,18.03
2023-03-11T18:35:17.742Z,18.27
2023-03-11T18:37:46.690Z,19.60
2023-03-11T18:40:16.442Z,18.97
2023-03-11T18:42:44.530Z,19.00
2023-03-11T18:45:13.944Z,20.53
2023-03-11T18:47:42.027Z,18.97
2023-03-11T18:50:11.642Z,18.70
2023-03-11T18:52:39.826Z,18.97
2023-03-11T18:55:08.358Z,20.07
2023-03-11T18:57:40.314Z,18.80
2023-03-11T19:00:09.706Z,18.70
2023-03-11T19:02:37.905Z,18.50
2023-03-11T19:05:06.949Z,18.90
2023-03-11T19:07:35.110Z,19.20
2023-03-11T19:10:03.339Z,19.07
2023-03-11T19:12:33.704Z,19.77
2023-03-11T19:15:03.485Z,19.87
2023-03-11T19:17:31.528Z,19.77
2023-03-11T19:19:59.593Z,25.37
2023-03-11T19:22:27.697Z,20.00
2023-03-11T19:24:55.780Z,19.50
2023-03-11T19:27:23.814Z,20.33
2023-03-11T19:29:51.911Z,19.90
2023-03-11T19:32:21.407Z,19.77
2023-03-11T19:34:49.581Z,21.37
2023-03-11T19:37:18.140Z,20.37
2023-03-11T19:39:46.342Z,20.63
2023-03-11T19:42:14.680Z,21.63
2023-03-11T19:44:42.807Z,21.63
2023-03-11T19:47:11.233Z,21.50
2023-03-11T19:49:40.730Z,22.20
2023-03-11T19:52:09.881Z,23.07
2023-03-11T19:54:37.937Z,21.40
2023-03-11T19:57:06.135Z,21.90
2023-03-11T19:59:34.300Z,21.67
2023-03-11T20:02:02.963Z,21.60
2023-03-11T20:04:31.069Z,21.33
2023-03-11T20:07:00.673Z,21.03
2023-03-11T20:09:28.747Z,21.80
2023-03-11T20:11:56.858Z,21.50
2023-03-11T20:14:24.922Z,21.80
2023-03-11T20:16:53.011Z,22.20
2023-03-11T20:19:21.225Z,23.50
2023-03-11T20:21:49.357Z,23.20
2023-03-11T20:24:18.937Z,28.13
2023-03-11T20:26:48.814Z,24.70
2023-03-11T20:29:18.734Z,25.40
2023-03-11T20:31:47.156Z,25.63
2023-03-11T20:34:15.348Z,25.93
2023-03-11T20:36:43.586Z,28.37
2023-03-11T20:39:11.781Z,27.17
2023-03-11T20:41:41.913Z,30.40
2023-03-11T20:44:12.785Z,28.80
2023-03-11T20:46:41.281Z,30.90
2023-03-11T20:49:09.535Z,30.43
2023-03-11T20:51:41.020Z,29.87
2023-03-11T20:54:09.537Z,31.23
2023-03-11T20:56:37.645Z,29.00
2023-03-11T20:59:07.694Z,29.73
2023-03-11T21:01:37.495Z,30.37
2023-03-11T21:04:05.999Z,31.33
2023-03-11T21:06:36.232Z,29.27
2023-03-11T21:09:07.445Z,30.83
2023-03-11T21:11:35.741Z,30.90
2023-03-11T21:14:04.347Z,32.00
2023-03-11T21:16:34.048Z,29.40
2023-03-11T21:19:05.382Z,30.13
2023-03-11T21:21:33.675Z,31.40
2023-03-11T21:24:01.801Z,31.93
2023-03-11T21:26:30.121Z,31.30
2023-03-11T21:28:58.323Z,32.70
2023-03-11T21:31:29.232Z,33.70
2023-03-11T21:34:01.155Z,33.10
2023-03-11T21:36:30.013Z,31.30
2023-03-11T21:38:58.166Z,29.97
2023-03-11T21:41:27.924Z,29.40
2023-03-11T21:43:57.956Z,34.13
2023-03-11T21:46:28.151Z,29.60
2023-03-11T21:48:58.378Z,29.50
2023-03-11T21:51:27.619Z,28.57
2023-03-11T21:53:56.372Z,28.23
2023-03-11T21:56:24.794Z,28.00
2023-03-11T21:58:53.880Z,26.73
2023-03-11T22:01:22.187Z,26.17
2023-03-11T22:03:50.633Z,25.50
2023-03-11T22:06:20.313Z,26.23
2023-03-11T22:08:48.813Z,26.20
2023-03-11T22:11:19.461Z,25.93
2023-03-11T22:13:50.023Z,25.70
2023-03-11T22:16:19.080Z,25.13
2023-03-11T22:18:47.504Z,25.37
2023-03-11T22:21:16.461Z,24.90
2023-03-11T22:23:46.431Z,25.20
2023-03-11T22:26:16.505Z,25.17
2023-03-11T22:28:44.973Z,26.43
2023-03-11T22:31:15.766Z,24.47
2023-03-11T22:33:43.887Z,24.27
2023-03-11T22:36:12.018Z,25.20
2023-03-11T22:38:42.236Z,24.90
2023-03-11T22:41:12.104Z,26.23
2023-03-11T22:43:40.654Z,24.77
2023-03-11T22:46:08.827Z,27.03
2023-03-11T22:48:37.124Z,25.67
2023-03-11T22:51:06.031Z,26.30
2023-03-11T22:53:34.093Z,27.83
2023-03-11T22:56:07.181Z,25.93
2023-03-11T22:58:36.886Z,25.40
2023-03-11T23:01:06.011Z,25.33
2023-03-11T23:03:35.375Z,24.10
2023-03-11T23:06:05.628Z,23.70
2023-03-11T23:08:33.958Z,22.83
2023-03-11T23:11:04.159Z,22.17
2023-03-11T23:13:33.962Z,22.90
2023-03-11T23:16:07.287Z,22.93
2023-03-11T23:18:35.987Z,23.10
2023-03-11T23:21:04.429Z,22.60
2023-03-11T23:23:32.544Z,22.57
2023-03-11T23:26:00.622Z,22.90
2023-03-11T23:28:28.730Z,22.13
2023-03-11T23:30:56.786Z,21.70
2023-03-11T23:33:26.286Z,21.63
2023-03-11T23:35:54.423Z,22.00
2023-03-11T23:38:22.522Z,24.17
2023-03-11T23:40:50.604Z,22.00
2023-03-11T23:43:18.653Z,21.50
2023-03-11T23:45:47.066Z,21.97
2023-03-11T23:48:15.601Z,21.63
2023-03-11T23:50:47.713Z,21.53
2023-03-11T23:53:17.853Z,22.57
2023-03-11T23:55:45.903Z,21.90
2023-03-11T23:58:14.009Z,21.00
